createdAt,value
2023-05-08T00:00:41.033Z,51.156078
2023-05-08T00:01:41.038Z,51.156105
2023-05-08T00:02:41.091Z,51.156086
2023-05-08T00:03:41.204Z,51.156036
2023-05-08T00:04:41.086Z,51.156059
2023-05-08T00:05:41.139Z,51.156063
2023-05-08T00:06:41.052Z,51.156052
2023-05-08T00:07:40.961Z,51.156048
2023-05-08T00:08:40.945Z,51.156059
2023-05-08T00:09:40.950Z,51.156036
2023-05-08T00:10:41.005Z,51.156082
2023-05-08T00:11:41.008Z,51.156094
2023-05-08T00:12:41.000Z,51.156078
2023-05-08T00:13:40.899Z,51.156075
2023-05-08T00:14:40.955Z,51.156105
2023-05-08T00:15:40.954Z,51.156120
2023-05-08T00:16:41.001Z,51.156116
2023-05-08T00:17:41.046Z,51.156101
2023-05-08T00:18:40.855Z,51.156097
2023-05-08T00:19:40.911Z,51.156052
2023-05-08T00:20:40.838Z,51.156063
2023-05-08T00:21:40.967Z,51.156063
2023-05-08T00:22:40.831Z,51.156075
2023-05-08T00:23:40.835Z,51.156124
2023-05-08T00:24:40.871Z,51.156128
2023-05-08T00:25:40.797Z,51.156094
2023-05-08T00:26:40.985Z,51.156094
2023-05-08T00:27:40.777Z,51.156063
2023-05-08T00:28:40.808Z,51.156086
2023-05-08T00:29:40.775Z,51.156109
2023-05-08T00:30:40.785Z,51.156170
2023-05-08T00:31:41.580Z,51.156128
2023-05-08T00:32:40.736Z,51.156094
2023-05-08T00:33:40.781Z,51.156113
2023-05-08T00:34:40.767Z,51.156097
2023-05-08T00:35:40.684Z,51.156120
2023-05-08T00:36:40.640Z,51.156143
2023-05-08T00:37:40.707Z,51.156147
2023-05-08T00:38:40.679Z,51.156067
2023-05-08T00:39:40.607Z,51.156082
2023-05-08T00:40:41.557Z,51.156109
2023-05-08T00:41:40.622Z,51.156113
2023-05-08T00:42:40.640Z,51.156097
2023-05-08T00:43:40.659Z,51.156101
2023-05-08T00:44:40.671Z,51.156101
2023-05-08T00:45:40.599Z,51.156094
2023-05-08T00:46:40.636Z,51.156067
2023-05-08T00:47:40.614Z,51.156101
2023-05-08T00:48:40.640Z,51.156071
2023-05-08T00:49:41.126Z,51.156075
2023-05-08T00:50:40.532Z,51.156052
2023-05-08T00:51:40.569Z,51.156059
2023-05-08T00:52:40.575Z,51.156082
2023-05-08T00:53:40.551Z,51.156078
2023-05-08T00:54:40.558Z,51.156078
2023-05-08T00:55:40.479Z,51.156094
2023-05-08T00:56:40.625Z,51.156090
2023-05-08T00:57:40.512Z,51.156097
2023-05-08T00:58:40.529Z,51.156116
2023-05-08T00:59:40.466Z,51.156128
2023-05-08T01:00:40.510Z,51.156094
2023-05-08T01:01:40.507Z,51.156094
2023-05-08T01:02:40.477Z,51.156078
2023-05-08T01:03:40.583Z,51.156059
2023-05-08T01:04:40.402Z,51.156078
2023-05-08T01:05:40.361Z,51.156090
2023-05-08T01:06:40.391Z,51.156105
2023-05-08T01:07:40.373Z,51.156136
2023-05-08T01:08:40.432Z,51.156101
2023-05-08T01:09:40.344Z,51.156090
2023-05-08T01:10:41.081Z,51.156086
2023-05-08T01:11:40.425Z,51.156075
2023-05-08T01:12:40.557Z,51.156078
2023-05-08T01:13:40.337Z,51.156086
2023-05-08T01:14:40.283Z,51.156067
2023-05-08T01:15:40.367Z,51.156101
2023-05-08T01:16:40.381Z,51.156097
2023-05-08T01:17:40.346Z,51.156105
2023-05-08T01:18:40.300Z,51.156116
2023-05-08T01:19:40.424Z,51.156105
2023-05-08T01:20:40.247Z,51.156078
2023-05-08T01:21:40.267Z,51.156082
2023-05-08T01:22:40.291Z,51.156082
2023-05-08T01:23:40.195Z,51.156075
2023-05-08T01:24:40.240Z,51.156086
2023-05-08T01:25:40.198Z,51.156094
2023-05-08T01:26:40.206Z,51.156078
2023-05-08T01:27:40.123Z,51.156071
2023-05-08T01:28:40.148Z,51.156055
2023-05-08T01:29:40.138Z,51.156078
2023-05-08T01:30:40.144Z,51.156075
2023-05-08T01:31:40.245Z,51.156017
2023-05-08T01:32:40.201Z,51.156082
2023-05-08T01:33:40.146Z,51.156120
2023-05-08T01:34:40.157Z,51.156109
2023-05-08T01:35:40.201Z,51.156101
2023-05-08T01:36:40.123Z,51.156097
2023-05-08T01:37:40.052Z,51.156128
2023-05-08T01:38:40.192Z,51.156166
2023-05-08T01:39:40.057Z,51.156094
2023-05-08T01:40:40.147Z,51.156071
2023-05-08T01:41:40.071Z,51.156048
2023-05-08T01:42:40.922Z,51.156067
2023-05-08T01:43:40.112Z,51.156063
2023-05-08T01:44:40.087Z,51.156086
2023-05-08T01:45:40.072Z,51.156082
2023-05-08T01:46:40.000Z,51.156082
2023-05-08T01:47:40.072Z,51.156071
2023-05-08T01:48:39.978Z,51.156052
2023-05-08T01:49:40.057Z,51.156067
2023-05-08T01:50:39.932Z,51.156078
2023-05-08T01:51:39.944Z,51.156063
2023-05-08T01:52:39.893Z,51.156067
2023-05-08T01:53:39.925Z,51.156078
2023-05-08T01:54:39.988Z,51.156094
2023-05-08T01:55:39.897Z,51.156067
2023-05-08T01:56:39.961Z,51.156097
2023-05-08T01:57:39.878Z,51.156113
2023-05-08T01:58:39.927Z,51.156113
2023-05-08T01:59:39.892Z,51.156109
2023-05-08T02:00:39.924Z,51.156109
2023-05-08T02:01:39.910Z,51.156105
2023-05-08T02:02:39.955Z,51.156078
2023-05-08T02:03:39.946Z,51.156136
2023-05-08T02:04:39.795Z,51.156139
2023-05-08T02:05:39.809Z,51.156120
2023-05-08T02:06:39.820Z,51.156105
2023-05-08T02:07:39.808Z,51.156116
2023-05-08T02:08:39.758Z,51.156094
2023-05-08T02:09:39.783Z,51.156086
2023-05-08T02:10:39.888Z,51.156094
2023-05-08T02:11:39.774Z,51.156086
2023-05-08T02:12:39.870Z,51.156097
2023-05-08T02:13:39.734Z,51.156113
2023-05-08T02:14:39.710Z,51.156113
2023-05-08T02:15:39.760Z,51.156120
2023-05-08T02:16:39.724Z,51.156124
2023-05-08T02:17:40.683Z,51.156109
2023-05-08T02:18:39.663Z,51.156109
2023-05-08T02:19:39.708Z,51.156109
2023-05-08T02:20:39.647Z,51.156151
2023-05-08T02:21:39.765Z,51.156162
2023-05-08T02:22:39.676Z,51.156136
2023-05-08T02:23:39.639Z,51.156116
2023-05-08T02:24:39.618Z,51.156116
2023-05-08T02:25:39.623Z,51.156101
2023-05-08T02:26:39.589Z,51.156101
2023-05-08T02:27:39.596Z,51.156128
2023-05-08T02:28:39.627Z,51.156120
2023-05-08T02:29:39.532Z,51.156094
2023-05-08T02:30:39.573Z,51.156116
2023-05-08T02:31:39.605Z,51.156116
2023-05-08T02:32:39.573Z,51.156094
2023-05-08T02:33:39.576Z,51.156120
2023-05-08T02:34:45.245Z,51.156094
2023-05-08T02:35:41.665Z,51.156105
2023-05-08T02:36:39.508Z,51.156109
2023-05-08T02:37:39.535Z,51.156113
2023-05-08T02:38:39.502Z,51.156101
2023-05-08T02:39:39.510Z,51.156097
2023-05-08T02:40:40.100Z,51.156055
2023-05-08T02:41:39.435Z,51.156075
2023-05-08T02:42:39.560Z,51.156067
2023-05-08T02:43:39.418Z,51.156082
2023-05-08T02:44:39.400Z,51.156078
2023-05-08T02:45:39.435Z,51.156071
2023-05-08T02:46:39.487Z,51.156113
2023-05-08T02:47:39.420Z,51.156094
2023-05-08T02:48:39.344Z,51.156101
2023-05-08T02:49:39.419Z,51.156124
2023-05-08T02:50:39.420Z,51.156128
2023-05-08T02:51:39.384Z,51.156113
2023-05-08T02:52:39.356Z,51.156128
2023-05-08T02:53:39.330Z,51.156116
2023-05-08T02:54:39.480Z,51.156097
2023-05-08T02:55:39.298Z,51.156097
2023-05-08T02:56:39.305Z,51.156116
2023-05-08T02:57:39.275Z,51.156120
2023-05-08T02:58:39.276Z,51.156109
2023-05-08T02:59:39.320Z,51.156239
2023-05-08T03:00:39.266Z,51.156189
2023-05-08T03:01:39.420Z,51.156120
2023-05-08T03:02:39.350Z,51.156162
2023-05-08T03:03:39.497Z,51.156147
2023-05-08T03:04:39.200Z,51.156174
2023-05-08T03:05:39.403Z,51.156158
2023-05-08T03:06:39.189Z,51.156193
2023-05-08T03:07:40.294Z,51.156174
2023-05-08T03:08:39.239Z,51.156116
2023-05-08T03:09:39.152Z,51.156166
2023-05-08T03:10:39.248Z,51.156147
2023-05-08T03:11:39.132Z,51.156105
2023-05-08T03:12:42.606Z,51.156128
2023-05-08T03:13:39.081Z,51.156147
2023-05-08T03:14:39.148Z,51.156094
2023-05-08T03:15:39.114Z,51.156105
2023-05-08T03:16:39.134Z,51.156082
2023-05-08T03:17:40.045Z,51.156116
2023-05-08T03:18:39.166Z,51.156120
2023-05-08T03:19:39.106Z,51.156113
2023-05-08T03:20:39.070Z,51.156147
2023-05-08T03:21:39.104Z,51.156120
2023-05-08T03:22:39.043Z,51.156128
2023-05-08T03:23:39.008Z,51.156120
2023-05-08T03:24:39.160Z,51.156116
2023-05-08T03:25:38.967Z,51.156128
2023-05-08T03:26:39.033Z,51.156101
2023-05-08T03:27:39.012Z,51.156097
2023-05-08T03:28:38.997Z,51.156109
2023-05-08T03:29:38.961Z,51.156109
2023-05-08T03:30:38.913Z,51.156109
2023-05-08T03:31:39.064Z,51.156113
2023-05-08T03:32:38.983Z,51.156101
2023-05-08T03:33:39.590Z,51.156082
2023-05-08T03:34:38.923Z,51.156101
2023-05-08T03:35:39.049Z,51.156090
2023-05-08T03:36:38.962Z,51.156094
2023-05-08T03:37:38.905Z,51.156109
2023-05-08T03:38:38.915Z,51.156105
2023-05-08T03:39:38.886Z,51.156105
2023-05-08T03:40:38.876Z,51.156116
2023-05-08T03:41:38.826Z,51.156113
2023-05-08T03:42:39.403Z,51.156116
2023-05-08T03:43:38.815Z,51.156094
2023-05-08T03:44:38.782Z,51.156109
2023-05-08T03:45:38.799Z,51.156143
2023-05-08T03:46:38.873Z,51.156132
2023-05-08T03:47:38.802Z,51.156101
2023-05-08T03:48:38.792Z,51.156136
2023-05-08T03:49:38.796Z,51.156151
2023-05-08T03:50:38.830Z,51.156151
2023-05-08T03:51:38.715Z,51.156155
2023-05-08T03:52:38.754Z,51.156124
2023-05-08T03:53:38.724Z,51.156086
2023-05-08T03:54:38.811Z,51.156040
2023-05-08T03:55:38.706Z,51.156078
2023-05-08T03:56:38.681Z,51.156086
2023-05-08T03:57:38.690Z,51.156086
2023-05-08T03:58:38.786Z,51.156094
2023-05-08T03:59:38.690Z,51.156097
2023-05-08T04:00:38.637Z,51.156120
2023-05-08T04:01:38.749Z,51.156136
2023-05-08T04:02:40.720Z,51.156109
2023-05-08T04:03:39.366Z,51.156132
2023-05-08T04:04:38.670Z,51.156120
2023-05-08T04:05:38.660Z,51.156147
2023-05-08T04:06:49.366Z,51.156094
2023-05-08T04:07:40.622Z,51.156105
2023-05-08T04:08:38.604Z,51.156124
2023-05-08T04:09:38.585Z,51.156105
2023-05-08T04:10:38.648Z,51.156101
2023-05-08T04:11:38.529Z,51.156132
2023-05-08T04:12:38.602Z,51.156128
2023-05-08T04:13:38.549Z,51.156116
2023-05-08T04:14:38.529Z,51.156101
2023-05-08T04:15:38.653Z,51.156109
2023-05-08T04:16:38.510Z,51.156109
2023-05-08T04:17:38.540Z,51.156132
2023-05-08T04:18:38.505Z,51.156132
2023-05-08T04:19:38.486Z,51.156132
2023-05-08T04:20:38.490Z,51.156113
2023-05-08T04:21:38.443Z,51.156113
2023-05-08T04:22:38.514Z,51.156124
2023-05-08T04:23:38.412Z,51.156132
2023-05-08T04:24:38.443Z,51.156132
2023-05-08T04:25:38.460Z,51.156120
2023-05-08T04:26:38.484Z,51.156139
2023-05-08T04:27:38.406Z,51.156116
2023-05-08T04:28:38.392Z,51.156132
2023-05-08T04:29:38.365Z,51.156132
2023-05-08T04:30:38.325Z,51.156132
2023-05-08T04:31:38.408Z,51.156116
2023-05-08T04:32:40.282Z,51.156109
2023-05-08T04:33:39.417Z,51.156105
2023-05-08T04:34:38.316Z,51.156094
2023-05-08T04:35:38.360Z,51.156055
2023-05-08T04:36:38.310Z,51.156086
2023-05-08T04:37:38.380Z,51.156097
2023-05-08T04:38:38.422Z,51.156109
2023-05-08T04:39:38.279Z,51.156116
2023-05-08T04:40:38.237Z,51.156128
2023-05-08T04:41:38.361Z,51.156082
2023-05-08T04:42:38.324Z,51.156120
2023-05-08T04:43:38.294Z,51.156116
2023-05-08T04:44:38.237Z,51.156120
2023-05-08T04:45:38.331Z,51.156120
2023-05-08T04:46:38.302Z,51.156109
2023-05-08T04:47:38.925Z,51.156090
2023-05-08T04:48:38.179Z,51.156097
2023-05-08T04:49:38.242Z,51.156155
2023-05-08T04:50:38.181Z,51.156158
2023-05-08T04:51:38.122Z,51.156143
2023-05-08T04:52:38.209Z,51.156181
2023-05-08T04:53:38.154Z,51.156101
2023-05-08T04:54:38.214Z,51.156109
2023-05-08T04:55:38.121Z,51.156109
2023-05-08T04:56:38.125Z,51.156071
2023-05-08T04:57:38.144Z,51.156075
2023-05-08T04:58:38.060Z,51.156120
2023-05-08T04:59:38.156Z,51.156147
2023-05-08T05:00:38.099Z,51.156055
2023-05-08T05:01:38.159Z,51.156147
2023-05-08T05:02:38.115Z,51.156158
2023-05-08T05:03:38.155Z,51.156136
2023-05-08T05:04:38.065Z,51.156124
2023-05-08T05:05:38.922Z,51.156109
2023-05-08T05:06:38.982Z,51.156120
2023-05-08T05:07:38.039Z,51.156094
2023-05-08T05:08:38.063Z,51.156109
2023-05-08T05:09:38.038Z,51.156124
2023-05-08T05:10:37.960Z,51.156101
2023-05-08T05:11:37.929Z,51.156120
2023-05-08T05:12:38.000Z,51.156116
2023-05-08T05:13:37.914Z,51.156101
2023-05-08T05:14:37.978Z,51.156105
2023-05-08T05:15:37.953Z,51.156082
2023-05-08T05:16:38.007Z,51.156105
2023-05-08T05:17:37.948Z,51.156105
2023-05-08T05:18:37.908Z,51.156120
2023-05-08T05:19:37.884Z,51.156101
2023-05-08T05:20:37.903Z,51.156101
2023-05-08T05:21:37.831Z,51.156120
2023-05-08T05:22:37.837Z,51.156120
2023-05-08T05:23:37.834Z,51.156120
2023-05-08T05:24:37.843Z,51.156132
2023-05-08T05:25:37.807Z,51.156136
2023-05-08T05:26:37.845Z,51.156109
2023-05-08T05:27:37.825Z,51.156109
2023-05-08T05:28:37.793Z,51.156097
2023-05-08T05:29:37.800Z,51.156113
2023-05-08T05:30:37.745Z,51.156109
2023-05-08T05:31:37.810Z,51.156124
2023-05-08T05:32:37.826Z,51.156113
2023-05-08T05:33:37.701Z,51.156105
2023-05-08T05:34:37.699Z,51.156143
2023-05-08T05:35:37.698Z,51.156139
2023-05-08T05:36:37.784Z,51.156124
2023-05-08T05:37:37.696Z,51.156120
2023-05-08T05:38:37.711Z,51.156132
2023-05-08T05:39:37.642Z,51.156090
2023-05-08T05:40:37.814Z,51.156101
2023-05-08T05:41:37.683Z,51.156120
2023-05-08T05:42:37.671Z,51.156124
2023-05-08T05:43:37.608Z,51.156139
2023-05-08T05:44:37.645Z,51.156109
2023-05-08T05:45:37.636Z,51.156075
2023-05-08T05:46:37.602Z,51.156136
2023-05-08T05:47:37.671Z,51.156120
2023-05-08T05:48:37.547Z,51.156109
2023-05-08T05:49:37.584Z,51.156094
2023-05-08T05:50:37.631Z,51.156090
2023-05-08T05:51:37.577Z,51.156090
2023-05-08T05:52:37.523Z,51.156101
2023-05-08T05:53:37.554Z,51.156113
2023-05-08T05:54:37.557Z,51.156075
2023-05-08T05:55:37.537Z,51.156132
2023-05-08T05:56:37.511Z,51.156124
2023-05-08T05:57:37.484Z,51.156132
2023-05-08T05:58:37.461Z,51.156139
2023-05-08T05:59:37.496Z,51.156162
2023-05-08T06:00:37.473Z,51.156113
2023-05-08T06:01:37.494Z,51.156101
2023-05-08T06:02:37.565Z,51.156128
2023-05-08T06:03:37.510Z,51.156128
2023-05-08T06:04:37.400Z,51.156097
2023-05-08T06:05:37.469Z,51.156147
2023-05-08T06:06:37.412Z,51.156166
2023-05-08T06:07:37.360Z,51.156105
2023-05-08T06:08:37.386Z,51.156128
2023-05-08T06:09:37.403Z,51.156094
2023-05-08T06:10:37.399Z,51.156101
2023-05-08T06:11:37.348Z,51.156143
2023-05-08T06:12:37.388Z,51.156185
2023-05-08T06:13:37.270Z,51.156219
2023-05-08T06:14:37.296Z,51.156151
2023-05-08T06:15:38.078Z,51.156178
2023-05-08T06:16:37.336Z,51.156109
2023-05-08T06:17:37.306Z,51.156109
2023-05-08T06:18:37.245Z,51.156151
2023-05-08T06:19:37.237Z,51.156147
2023-05-08T06:20:37.299Z,51.156143
2023-05-08T06:21:37.229Z,51.156181
2023-05-08T06:22:37.205Z,51.156063
2023-05-08T06:23:37.232Z,51.156113
2023-05-08T06:24:37.872Z,51.156158
2023-05-08T06:25:37.190Z,51.156105
2023-05-08T06:26:37.177Z,51.156086
2023-05-08T06:27:37.154Z,51.156151
2023-05-08T06:28:37.185Z,51.156151
2023-05-08T06:29:37.993Z,51.156097
2023-05-08T06:30:37.249Z,51.156071
2023-05-08T06:31:37.179Z,51.156120
2023-05-08T06:32:37.137Z,51.156090
2023-05-08T06:33:37.124Z,51.156067
2023-05-08T06:34:37.265Z,51.156116
2023-05-08T06:35:37.064Z,51.156101
2023-05-08T06:56:03.012Z,51.156136
2023-05-08T06:57:03.101Z,51.156113
2023-05-08T06:58:03.017Z,51.156078
2023-05-08T06:59:08.572Z,51.156067
2023-05-08T07:00:03.993Z,51.156052
2023-05-08T07:01:02.978Z,51.156063
2023-05-08T07:02:03.091Z,51.156075
2023-05-08T07:03:03.029Z,51.156124
2023-05-08T07:04:02.924Z,51.156082
2023-05-08T07:05:03.158Z,51.156094
2023-05-08T07:06:02.903Z,51.156075
2023-05-08T07:07:02.873Z,51.156063
2023-05-08T07:08:02.916Z,51.156052
2023-05-08T07:09:02.867Z,51.156063
2023-05-08T07:10:02.906Z,51.156075
2023-05-08T07:11:02.979Z,51.156090
2023-05-08T07:12:02.836Z,51.156082
2023-05-08T07:13:02.873Z,51.156086
2023-05-08T07:14:02.931Z,51.156082
2023-05-08T07:15:13.860Z,51.156075
2023-05-08T07:16:04.862Z,51.156067
2023-05-08T07:17:02.765Z,51.156086
2023-05-08T07:18:03.570Z,51.156071
2023-05-08T07:19:02.778Z,51.156090
2023-05-08T07:20:03.066Z,51.156067
2023-05-08T07:21:02.727Z,51.156052
2023-05-08T07:22:04.769Z,51.156059
2023-05-08T07:23:02.763Z,51.156075
2023-05-08T07:24:02.754Z,51.156067
2023-05-08T07:25:04.250Z,51.156059
2023-05-08T07:26:02.854Z,51.156067
2023-05-08T07:27:02.850Z,51.156075
2023-05-08T07:28:02.707Z,51.156071
2023-05-08T07:29:02.683Z,51.156052
2023-05-08T07:30:03.721Z,51.156040
2023-05-08T07:31:02.722Z,51.156036
2023-05-08T07:32:03.321Z,51.156052
2023-05-08T07:33:02.666Z,51.156048
2023-05-08T07:34:03.512Z,51.156048
2023-05-08T07:35:02.636Z,51.156048
2023-05-08T07:36:02.617Z,51.156044
2023-05-08T07:37:02.610Z,51.156063
2023-05-08T07:38:02.918Z,51.156063
2023-05-08T07:39:02.647Z,51.156067
2023-05-08T07:40:02.566Z,51.156071
2023-05-08T07:41:02.600Z,51.156097
2023-05-08T07:42:02.564Z,51.156086
2023-05-08T07:43:02.607Z,51.156052
2023-05-08T07:44:02.538Z,51.156048
2023-05-08T07:45:02.491Z,51.156052
2023-05-08T07:46:03.153Z,51.156067
2023-05-08T07:47:02.506Z,51.156071
2023-05-08T07:48:02.596Z,51.156063
2023-05-08T07:49:02.471Z,51.156052
2023-05-08T07:50:02.559Z,51.156063
2023-05-08T07:51:02.431Z,51.156059
2023-05-08T07:52:02.483Z,51.156052
2023-05-08T07:53:02.456Z,51.156052
2023-05-08T07:54:02.412Z,51.156036
2023-05-08T07:55:03.139Z,51.156048
2023-05-08T07:56:02.412Z,51.156075
2023-05-08T07:57:02.415Z,51.156071
2023-05-08T07:58:02.384Z,51.156055
2023-05-08T07:59:02.348Z,51.156075
2023-05-08T08:00:02.366Z,51.155998
2023-05-08T08:01:02.426Z,51.156021
2023-05-08T08:02:02.445Z,51.156101
2023-05-08T08:03:02.442Z,51.156033
2023-05-08T08:04:02.522Z,51.156059
2023-05-08T08:05:02.318Z,51.156105
2023-05-08T08:06:02.346Z,51.156059
2023-05-08T08:07:02.356Z,51.156078
2023-05-08T08:08:02.312Z,51.156021
2023-05-08T08:09:02.332Z,51.156044
2023-05-08T08:10:02.339Z,51.156048
2023-05-08T08:11:03.789Z,51.156021
2023-05-08T08:12:02.259Z,51.156067
2023-05-08T08:13:02.372Z,51.156006
2023-05-08T08:14:02.229Z,51.156052
2023-05-08T08:15:02.255Z,51.156097
2023-05-08T08:16:02.334Z,51.156166
2023-05-08T08:17:02.375Z,51.156151
2023-05-08T08:18:02.314Z,51.156147
2023-05-08T08:19:02.218Z,51.156055
2023-05-08T08:20:02.250Z,51.156082
2023-05-08T08:21:02.202Z,51.156075
2023-05-08T08:22:02.216Z,51.156155
2023-05-08T08:23:02.184Z,51.156155
2023-05-08T08:24:02.185Z,51.156174
2023-05-08T08:25:02.237Z,51.156155
2023-05-08T08:26:02.177Z,51.156181
2023-05-08T08:27:03.006Z,51.156147
2023-05-08T08:28:02.160Z,51.156139
2023-05-08T08:29:02.088Z,51.156151
2023-05-08T08:30:15.888Z,51.156071
2023-05-08T08:31:04.081Z,51.156128
2023-05-08T08:32:02.095Z,51.156029
2023-05-08T08:33:02.128Z,51.156075
2023-05-08T08:34:02.092Z,51.156124
2023-05-08T08:35:02.053Z,51.156105
2023-05-08T08:36:02.030Z,51.156120
2023-05-08T08:37:02.022Z,51.156158
2023-05-08T08:38:01.976Z,51.156151
2023-05-08T08:39:03.179Z,51.156071
2023-05-08T08:40:02.030Z,51.156078
2023-05-08T08:41:01.958Z,51.156086
2023-05-08T08:42:02.003Z,51.156059
2023-05-08T08:43:01.950Z,51.156105
2023-05-08T08:44:01.933Z,51.156155
2023-05-08T08:45:01.921Z,51.156139
2023-05-08T08:46:01.989Z,51.156162
2023-05-08T08:47:01.900Z,51.156162
2023-05-08T08:48:01.979Z,51.156212
2023-05-08T08:49:01.876Z,51.156166
2023-05-08T08:50:02.651Z,51.156109
2023-05-08T08:51:01.872Z,51.156078
2023-05-08T08:52:01.824Z,51.156094
2023-05-08T08:53:01.931Z,51.156162
2023-05-08T08:54:01.834Z,51.156216
2023-05-08T08:55:01.828Z,51.156174
2023-05-08T08:56:01.824Z,51.156128
2023-05-08T08:57:01.899Z,51.156162
2023-05-08T08:58:01.885Z,51.156086
2023-05-08T08:59:01.733Z,51.156113
2023-05-08T09:00:01.748Z,51.156158
2023-05-08T09:01:01.755Z,51.156200
2023-05-08T09:02:01.861Z,51.156219
2023-05-08T09:03:01.970Z,51.156181
2023-05-08T09:04:01.848Z,51.156170
2023-05-08T09:05:01.732Z,51.156223
2023-05-08T09:06:01.755Z,51.156258
2023-05-08T09:07:01.729Z,51.156265
2023-05-08T09:08:01.711Z,51.156322
2023-05-08T09:09:01.700Z,51.156231
2023-05-08T09:10:01.670Z,51.156109
2023-05-08T09:11:02.419Z,51.156116
2023-05-08T09:12:01.714Z,51.156120
2023-05-08T09:13:01.738Z,51.156143
2023-05-08T09:14:01.672Z,51.156277
2023-05-08T09:15:01.614Z,51.156139
2023-05-08T09:16:02.309Z,51.156071
2023-05-08T09:17:01.571Z,51.156067
2023-05-08T09:18:01.793Z,51.156136
2023-05-08T09:19:01.996Z,51.156147
2023-05-08T09:20:03.002Z,51.156139
2023-05-08T09:21:01.631Z,51.156166
2023-05-08T09:22:01.589Z,51.156151
2023-05-08T09:23:01.594Z,51.156116
2023-05-08T09:24:01.532Z,51.156090
2023-05-08T09:25:01.802Z,51.156143
2023-05-08T09:26:01.538Z,51.156143
2023-05-08T09:27:01.532Z,51.156181
2023-05-08T09:28:01.562Z,51.156189
2023-05-08T09:29:01.500Z,51.156204
2023-05-08T09:30:01.597Z,51.156155
2023-05-08T09:31:01.477Z,51.156128
2023-05-08T09:32:02.267Z,51.156162
2023-05-08T09:33:01.584Z,51.156185
2023-05-08T09:34:01.540Z,51.156151
2023-05-08T09:35:01.541Z,51.156193
2023-05-08T09:36:01.419Z,51.156158
2023-05-08T09:37:01.402Z,51.156151
2023-05-08T09:38:01.409Z,51.156136
2023-05-08T09:39:01.451Z,51.156151
2023-05-08T09:40:01.411Z,51.156151
2023-05-08T09:41:01.391Z,51.156128
2023-05-08T09:42:01.329Z,51.156113
2023-05-08T09:43:01.372Z,51.156120
2023-05-08T09:44:01.405Z,51.156113
2023-05-08T09:45:01.321Z,51.156078
2023-05-08T09:46:02.396Z,51.156128
2023-05-08T09:47:01.302Z,51.156155
2023-05-08T09:48:01.445Z,51.156200
2023-05-08T09:49:01.326Z,51.156162
2023-05-08T09:50:01.254Z,51.156170
2023-05-08T09:51:01.290Z,51.156128
2023-05-08T09:52:01.275Z,51.156113
2023-05-08T09:53:02.152Z,51.156094
2023-05-08T09:54:01.242Z,51.156075
2023-05-08T09:55:01.266Z,51.156101
2023-05-08T09:56:01.253Z,51.156082
2023-05-08T09:57:01.195Z,51.156120
2023-05-08T09:58:01.205Z,51.156090
2023-05-08T09:59:01.186Z,51.156071
2023-05-08T10:00:01.186Z,51.156139
2023-05-08T10:01:01.170Z,51.156116
2023-05-08T10:02:01.250Z,51.156105
2023-05-08T10:03:01.253Z,51.156128
2023-05-08T10:04:01.289Z,51.156147
2023-05-08T10:05:01.193Z,51.156124
2023-05-08T10:06:01.134Z,51.156071
2023-05-08T10:07:01.200Z,51.156113
2023-05-08T10:08:01.154Z,51.156147
2023-05-08T10:09:01.066Z,51.156139
2023-05-08T10:10:01.147Z,51.156128
2023-05-08T10:11:02.030Z,51.156128
2023-05-08T10:12:01.063Z,51.156128
2023-05-08T10:13:01.060Z,51.156094
2023-05-08T10:14:01.053Z,51.156097
2023-05-08T10:15:01.053Z,51.156101
2023-05-08T10:16:01.119Z,51.156101
2023-05-08T10:17:01.063Z,51.156116
2023-05-08T10:18:01.226Z,51.156113
2023-05-08T10:19:01.024Z,51.156113
2023-05-08T10:20:00.976Z,51.156116
2023-05-08T10:21:01.009Z,51.156109
2023-05-08T10:22:00.998Z,51.156113
2023-05-08T10:23:01.047Z,51.156128
2023-05-08T10:24:00.928Z,51.156120
2023-05-08T10:25:00.944Z,51.156090
2023-05-08T10:26:00.902Z,51.156124
2023-05-08T10:27:06.249Z,51.156116
2023-05-08T10:28:02.972Z,51.156116
2023-05-08T10:29:00.923Z,51.156166
2023-05-08T10:30:00.928Z,51.156128
2023-05-08T10:31:01.022Z,51.156097
2023-05-08T10:32:00.868Z,51.156105
2023-05-08T10:33:00.926Z,51.156075
2023-05-08T10:34:00.903Z,51.156071
2023-05-08T10:35:00.858Z,51.156086
2023-05-08T10:36:00.850Z,51.156071
2023-05-08T10:37:00.826Z,51.156044
2023-05-08T10:38:00.823Z,51.156055
2023-05-08T10:39:00.871Z,51.156029
2023-05-08T10:40:00.783Z,51.156052
2023-05-08T10:41:00.800Z,51.156071
2023-05-08T10:42:00.744Z,51.156078
2023-05-08T10:43:00.750Z,51.156071
2023-05-08T10:44:03.140Z,51.156082
2023-05-08T10:45:01.771Z,51.156063
2023-05-08T10:46:00.775Z,51.156075
2023-05-08T10:47:00.735Z,51.156101
2023-05-08T10:48:00.741Z,51.156101
2023-05-08T10:49:00.736Z,51.156116
2023-05-08T10:50:00.703Z,51.156151
2023-05-08T10:51:01.186Z,51.156128
2023-05-08T10:52:00.678Z,51.156158
2023-05-08T10:53:00.635Z,51.156151
2023-05-08T10:54:00.672Z,51.156151
2023-05-08T10:55:00.621Z,51.156143
2023-05-08T10:56:00.606Z,51.156120
2023-05-08T10:57:00.630Z,51.156116
2023-05-08T10:58:00.630Z,51.156128
2023-05-08T10:59:00.564Z,51.156120
2023-05-08T11:00:00.629Z,51.156113
2023-05-08T11:01:00.554Z,51.156097
2023-05-08T11:02:00.670Z,51.156116
2023-05-08T11:03:00.708Z,51.156132
2023-05-08T11:04:00.707Z,51.156113
2023-05-08T11:05:00.532Z,51.156075
2023-05-08T11:06:00.511Z,51.156097
2023-05-08T11:07:01.171Z,51.156105
2023-05-08T11:08:00.532Z,51.156094
2023-05-08T11:09:00.959Z,51.156082
2023-05-08T11:10:01.512Z,51.156086
2023-05-08T11:11:00.487Z,51.156094
2023-05-08T11:12:00.500Z,51.156097
2023-05-08T11:13:00.578Z,51.156105
2023-05-08T11:14:00.448Z,51.156139
2023-05-08T11:15:00.430Z,51.156158
2023-05-08T11:16:00.509Z,51.156063
2023-05-08T11:17:00.454Z,51.156059
2023-05-08T11:18:03.118Z,51.156120
2023-05-08T11:19:00.380Z,51.156044
2023-05-08T11:20:00.433Z,51.156113
2023-05-08T11:21:00.442Z,51.156128
2023-05-08T11:22:00.410Z,51.156139
2023-05-08T11:23:00.352Z,51.156101
2023-05-08T11:24:00.387Z,51.156078
2023-05-08T11:25:00.382Z,51.156094
2023-05-08T11:26:00.381Z,51.156158
2023-05-08T11:27:00.290Z,51.156178
2023-05-08T11:28:00.297Z,51.156151
2023-05-08T11:29:00.304Z,51.156132
2023-05-08T11:30:00.273Z,51.156120
2023-05-08T11:31:00.304Z,51.156124
2023-05-08T11:32:01.179Z,51.156132
2023-05-08T11:33:00.270Z,51.156136
2023-05-08T11:34:00.226Z,51.156090
2023-05-08T11:35:00.213Z,51.156105
2023-05-08T11:36:00.251Z,51.156105
2023-05-08T11:37:00.314Z,51.156120
2023-05-08T11:38:00.200Z,51.156113
2023-05-08T11:39:00.202Z,51.156128
2023-05-08T11:40:00.208Z,51.156109
2023-05-08T11:41:00.205Z,51.156109
2023-05-08T11:42:00.190Z,51.156094
2023-05-08T11:43:00.155Z,51.156128
2023-05-08T11:44:00.139Z,51.156082